Time;durP1;ratioP1;P1;durP2;ratioP2;P2;SDS_P1;SDS_P2;PMS_P1;PMS_P2;Temp;Humidity;BMP_temperature;BMP_pressure;BME280_temperature;BME280_humidity;BME280_pressure;Samples;Min_cycle;Max_cycle;Signal;HPM_P1;HPM_P2
2023/03/03 00:00:47;;;;;;;43.05;31.38;;;3.90;99.90;;;;;;6059979;23;20680;-70
2023/03/03 00:03:17;;;;;;;43.40;29.40;;;3.80;99.90;;;;;;6052540;23;20236;-70
2023/03/03 00:05:45;;;;;;;38.83;29.00;;;3.80;99.90;;;;;;6054364;23;20207;-71
2023/03/03 00:08:12;;;;;;;39.15;28.27;;;3.80;99.90;;;;;;6057554;23;20689;-70
2023/03/03 00:10:40;;;;;;;36.75;27.20;;;3.80;99.90;;;;;;6059991;23;20195;-70
2023/03/03 00:13:15;;;;;;;38.88;28.90;;;3.80;99.90;;;;;;6056475;23;20262;-70
2023/03/03 00:15:42;;;;;;;39.78;28.92;;;3.80;99.90;;;;;;6056448;23;20211;-70
2023/03/03 00:18:21;;;;;;;43.08;29.83;;;3.80;99.90;;;;;;6069199;23;20212;-69
2023/03/03 00:20:52;;;;;;;40.42;29.65;;;3.70;99.90;;;;;;6058487;23;20193;-70
2023/03/03 00:23:25;;;;;;;38.30;29.27;;;3.70;99.90;;;;;;6059955;23;20331;-70
2023/03/03 00:25:55;;;;;;;37.53;28.52;;;3.70;99.90;;;;;;6057176;23;20232;-70
2023/03/03 00:28:24;;;;;;;34.15;27.13;;;3.70;99.90;;;;;;6059226;23;20295;-70
2023/03/03 00:30:53;;;;;;;35.97;27.63;;;3.70;99.90;;;;;;6055378;23;20751;-69
2023/03/03 00:33:27;;;;;;;39.53;28.38;;;3.70;99.90;;;;;;6057469;23;20284;-70
2023/03/03 00:35:55;;;;;;;40.47;28.60;;;3.70;99.90;;;;;;6059382;23;20262;-70
2023/03/03 00:38:23;;;;;;;39.45;29.50;;;3.60;99.90;;;;;;6058190;23;20238;-69
2023/03/03 00:40:50;;;;;;;39.38;28.70;;;3.60;99.90;;;;;;6059771;23;20197;-70
2023/03/03 00:43:22;;;;;;;36.90;28.08;;;3.60;99.90;;;;;;6058987;23;20204;-70
2023/03/03 00:45:51;;;;;;;38.40;28.55;;;3.50;99.90;;;;;;6055957;23;20205;-70
2023/03/03 00:48:24;;;;;;;33.83;27.45;;;3.50;99.90;;;;;;6057751;23;21401;-68
2023/03/03 00:50:52;;;;;;;41.72;31.17;;;3.50;99.90;;;;;;6049051;23;20247;-70
2023/03/03 00:53:20;;;;;;;39.38;28.85;;;3.40;99.90;;;;;;6057728;23;20276;-71
2023/03/03 00:55:49;;;;;;;41.35;29.25;;;3.40;99.90;;;;;;6059267;23;20688;-70
2023/03/03 00:58:17;;;;;;;39.28;28.10;;;3.30;99.90;;;;;;6058830;23;20224;-71
2023/03/03 01:00:45;;;;;;;36.90;27.58;;;3.30;99.90;;;;;;6056955;23;20200;-70
2023/03/03 01:03:14;;;;;;;42.08;29.55;;;3.30;99.90;;;;;;6058752;23;20660;-69
2023/03/03 01:05:42;;;;;;;41.00;29.67;;;3.20;99.90;;;;;;6043823;23;20223;-69
2023/03/03 01:08:10;;;;;;;37.95;27.85;;;3.20;99.90;;;;;;6059715;23;20282;-70
2023/03/03 01:10:40;;;;;;;43.60;29.33;;;3.20;99.90;;;;;;6058405;23;20201;-70
2023/03/03 01:13:08;;;;;;;40.20;29.63;;;3.10;99.90;;;;;;6059700;23;20253;-70
2023/03/03 01:15:35;;;;;;;41.13;30.10;;;3.20;99.90;;;;;;6057677;23;20325;-70
2023/03/03 01:18:04;;;;;;;39.28;28.95;;;3.10;99.90;;;;;;6055883;23;20215;-69
2023/03/03 01:20:31;;;;;;;39.22;28.73;;;3.10;99.90;;;;;;6056464;23;20199;-70
2023/03/03 01:22:58;;;;;;;38.03;27.38;;;3.10;99.90;;;;;;6058329;23;20204;-69
2023/03/03 01:25:25;;;;;;;37.22;27.90;;;3.10;99.90;;;;;;6059023;23;20208;-70
2023/03/03 01:27:52;;;;;;;42.67;31.00;;;3.00;99.90;;;;;;6051193;23;20239;-70
2023/03/03 01:30:19;;;;;;;39.20;30.02;;;3.10;99.90;;;;;;6058440;23;20851;-70
2023/03/03 01:32:46;;;;;;;41.08;29.23;;;3.00;99.90;;;;;;6059650;23;20223;-70
2023/03/03 01:35:15;;;;;;;43.38;29.45;;;3.00;99.90;;;;;;6057021;23;20243;-69
2023/03/03 01:37:42;;;;;;;41.72;30.00;;;3.00;99.90;;;;;;6057875;23;20262;-69
2023/03/03 01:40:15;;;;;;;45.15;31.13;;;3.00;99.90;;;;;;6058358;23;20271;-69
2023/03/03 01:42:42;;;;;;;46.30;31.45;;;3.00;99.90;;;;;;6058145;23;20584;-70
2023/03/03 01:45:16;;;;;;;41.97;30.58;;;3.00;99.90;;;;;;6057671;23;20232;-70
2023/03/03 01:47:48;;;;;;;41.08;30.60;;;3.00;99.90;;;;;;6051898;23;20217;-69
2023/03/03 01:50:27;;;;;;;40.75;28.75;;;3.00;99.90;;;;;;6055627;23;20189;-69
2023/03/03 01:52:55;;;;;;;40.53;29.10;;;3.00;99.90;;;;;;6059589;23;20195;-69
2023/03/03 01:55:30;;;;;;;43.92;31.10;;;2.90;99.90;;;;;;6058751;23;20984;-69
2023/03/03 01:58:00;;;;;;;37.72;28.38;;;2.90;99.90;;;;;;6060157;23;20224;-69
2023/03/03 02:00:29;;;;;;;41.45;30.05;;;2.90;99.90;;;;;;6058237;23;20224;-69
2023/03/03 02:02:56;;;;;;;38.90;29.35;;;2.80;99.90;;;;;;6060656;23;20267;-70
2023/03/03 02:05:25;;;;;;;43.63;31.15;;;2.80;99.90;;;;;;6053502;23;20254;-68
2023/03/03 02:07:52;;;;;;;38.88;30.20;;;2.80;99.90;;;;;;6058988;23;20283;-69
2023/03/03 02:10:22;;;;;;;43.33;30.63;;;2.80;99.90;;;;;;6057954;23;20215;-70
2023/03/03 02:12:51;;;;;;;43.05;32.53;;;2.70;99.90;;;;;;6059637;23;20280;-69
2023/03/03 02:15:21;;;;;;;42.95;30.98;;;2.80;99.90;;;;;;6056755;23;20960;-69
2023/03/03 02:17:50;;;;;;;46.88;31.75;;;2.70;99.90;;;;;;6058026;23;20669;-69
2023/03/03 02:20:30;;;;;;;45.50;31.40;;;2.70;99.90;;;;;;6058100;23;20223;-69
2023/03/03 02:23:05;;;;;;;45.33;30.83;;;2.60;99.90;;;;;;6059618;23;20203;-69
2023/03/03 02:25:39;;;;;;;41.47;31.60;;;2.60;99.90;;;;;;6056397;23;20227;-70
2023/03/03 02:28:07;;;;;;;45.58;31.63;;;2.60;99.90;;;;;;6057954;23;20219;-70
2023/03/03 02:30:38;;;;;;;40.47;30.85;;;2.60;99.90;;;;;;6056928;23;20293;-70
2023/03/03 02:33:06;;;;;;;41.58;30.05;;;2.50;99.90;;;;;;6049569;23;20196;-70
2023/03/03 02:35:35;;;;;;;39.47;29.92;;;2.60;99.90;;;;;;6058314;23;20324;-69
2023/03/03 02:38:14;;;;;;;42.95;31.40;;;2.50;99.90;;;;;;6048704;23;20256;-70
2023/03/03 02:40:45;;;;;;;44.28;29.10;;;2.50;99.90;;;;;;6057073;23;20187;-70
2023/03/03 02:43:17;;;;;;;43.45;30.92;;;2.50;99.90;;;;;;6052960;23;20660;-70
2023/03/03 02:45:45;;;;;;;44.10;31.52;;;2.50;99.90;;;;;;6056450;23;20189;-69
2023/03/03 02:48:12;;;;;;;44.03;30.58;;;2.50;99.90;;;;;;6057997;23;20298;-70
2023/03/03 02:50:39;;;;;;;40.30;29.95;;;2.50;99.90;;;;;;6060130;23;20278;-70
2023/03/03 02:53:06;;;;;;;45.45;32.30;;;2.50;99.90;;;;;;6050870;23;20267;-69
2023/03/03 02:55:33;;;;;;;44.83;32.22;;;2.50;99.90;;;;;;6058640;23;20192;-69
2023/03/03 02:58:00;;;;;;;45.90;33.05;;;2.40;99.90;;;;;;6059767;23;20230;-69
2023/03/03 03:00:28;;;;;;;45.85;33.60;;;2.40;99.90;;;;;;6056438;23;20198;-70
2023/03/03 03:02:55;;;;;;;42.67;30.80;;;2.50;99.90;;;;;;6058260;23;20219;-70
2023/03/03 03:05:22;;;;;;;43.90;31.80;;;2.50;99.90;;;;;;6056235;23;20191;-69
2023/03/03 03:07:49;;;;;;;43.70;32.17;;;2.50;99.90;;;;;;6059828;23;20235;-69
2023/03/03 03:10:16;;;;;;;44.85;31.55;;;2.50;99.90;;;;;;6047001;23;20258;-69
2023/03/03 03:12:43;;;;;;;42.50;30.40;;;2.50;99.90;;;;;;6053829;23;20275;-69
2023/03/03 03:15:11;;;;;;;46.67;33.05;;;2.60;99.90;;;;;;6057835;23;20196;-69
2023/03/03 03:17:39;;;;;;;44.65;32.05;;;2.60;99.90;;;;;;6057411;23;20696;-69
2023/03/03 03:20:07;;;;;;;42.05;30.67;;;2.60;99.90;;;;;;6057376;23;20268;-69
2023/03/03 03:22:34;;;;;;;44.28;32.08;;;2.60;99.90;;;;;;6048634;23;20194;-69
2023/03/03 03:25:01;;;;;;;44.63;31.00;;;2.70;99.90;;;;;;6058155;23;20668;-69
2023/03/03 03:27:28;;;;;;;43.78;32.20;;;2.70;99.90;;;;;;6055746;23;20292;-69
2023/03/03 03:29:55;;;;;;;37.72;29.17;;;2.70;99.90;;;;;;6058432;23;20734;-70
2023/03/03 03:32:22;;;;;;;44.90;31.77;;;2.70;99.90;;;;;;6057654;23;20191;-69
2023/03/03 03:34:51;;;;;;;42.15;31.75;;;2.80;99.90;;;;;;6044839;23;20780;-70
2023/03/03 03:37:18;;;;;;;41.60;31.58;;;2.80;99.90;;;;;;6059397;23;20675;-69
2023/03/03 03:39:45;;;;;;;44.20;31.35;;;2.80;99.90;;;;;;6057010;23;20192;-69
2023/03/03 03:42:12;;;;;;;47.95;33.65;;;2.80;99.90;;;;;;6059187;23;20223;-69
2023/03/03 03:44:39;;;;;;;44.30;32.42;;;2.80;99.90;;;;;;6055759;23;20266;-70
2023/03/03 03:47:06;;;;;;;42.10;31.92;;;2.80;99.90;;;;;;6058906;23;20220;-70
2023/03/03 03:49:33;;;;;;;44.88;32.88;;;2.80;99.90;;;;;;6057910;23;20194;-69
2023/03/03 03:52:01;;;;;;;43.83;32.95;;;2.90;99.90;;;;;;6052075;23;20300;-70
2023/03/03 03:54:29;;;;;;;43.90;31.30;;;2.80;99.90;;;;;;6053173;23;20276;-70
2023/03/03 03:56:56;;;;;;;42.92;31.58;;;2.90;99.90;;;;;;6058340;23;20613;-69
2023/03/03 03:59:22;;;;;;;47.20;32.13;;;2.80;99.90;;;;;;6057664;23;20195;-69
2023/03/03 04:01:50;;;;;;;44.88;31.30;;;2.80;99.90;;;;;;6056776;23;20712;-70
2023/03/03 04:04:17;;;;;;;43.72;31.77;;;2.80;99.90;;;;;;6056673;23;20189;-69
2023/03/03 04:06:44;;;;;;;43.95;31.73;;;2.80;99.90;;;;;;6058288;23;20716;-69
2023/03/03 04:09:12;;;;;;;45.10;30.92;;;2.80;99.90;;;;;;6056961;23;20193;-69
2023/03/03 04:11:39;;;;;;;44.85;32.22;;;2.80;99.90;;;;;;6056982;23;20222;-70
2023/03/03 04:14:06;;;;;;;45.33;31.00;;;2.80;99.90;;;;;;6054483;23;20287;-69
2023/03/03 04:16:33;;;;;;;42.95;30.77;;;2.90;99.90;;;;;;6057776;23;20212;-69
2023/03/03 04:19:00;;;;;;;39.80;30.75;;;2.90;99.90;;;;;;6057467;23;20780;-69
2023/03/03 04:21:27;;;;;;;40.88;31.23;;;2.90;99.90;;;;;;6056707;23;20189;-69
2023/03/03 04:23:54;;;;;;;45.42;32.38;;;3.00;99.90;;;;;;6058422;23;20189;-70
2023/03/03 04:26:23;;;;;;;41.55;30.05;;;3.00;99.90;;;;;;6056696;23;20598;-69
2023/03/03 04:28:50;;;;;;;44.75;31.75;;;3.00;99.90;;;;;;6055984;23;20220;-70
2023/03/03 04:31:19;;;;;;;44.63;30.73;;;3.00;99.90;;;;;;6058104;23;20189;-69
2023/03/03 04:33:47;;;;;;;41.53;31.55;;;3.00;99.90;;;;;;6056878;23;20199;-69
2023/03/03 04:36:14;;;;;;;39.88;31.40;;;3.10;99.90;;;;;;6055435;23;20553;-70
2023/03/03 04:38:41;;;;;;;43.33;29.75;;;3.10;99.90;;;;;;6059629;23;20216;-69
2023/03/03 04:41:08;;;;;;;39.20;30.15;;;3.10;99.90;;;;;;6058035;23;20197;-70
2023/03/03 04:43:36;;;;;;;42.15;30.65;;;3.10;99.90;;;;;;6057656;23;20192;-69
2023/03/03 04:46:03;;;;;;;40.58;30.67;;;3.10;99.90;;;;;;6057822;23;20615;-70
2023/03/03 04:48:30;;;;;;;42.38;30.30;;;3.10;99.90;;;;;;6058029;23;20659;-69
2023/03/03 04:50:57;;;;;;;41.47;30.42;;;3.10;99.90;;;;;;6058645;23;20611;-70
2023/03/03 04:53:25;;;;;;;41.35;30.17;;;3.10;99.90;;;;;;6057896;23;20206;-69
2023/03/03 04:55:52;;;;;;;41.78;30.13;;;3.10;99.90;;;;;;6057747;23;20220;-69
2023/03/03 04:58:20;;;;;;;48.38;29.77;;;3.10;99.90;;;;;;6057043;23;20642;-69
2023/03/03 05:00:54;;;;;;;40.10;28.65;;;3.10;99.90;;;;;;6059533;23;20276;-69
2023/03/03 05:03:21;;;;;;;40.65;29.27;;;3.10;99.90;;;;;;6054529;23;20193;-69
2023/03/03 05:05:48;;;;;;;40.10;29.40;;;3.10;99.90;;;;;;6060051;23;20262;-69
2023/03/03 05:08:15;;;;;;;38.95;29.05;;;3.10;99.90;;;;;;6052729;23;20740;-69
2023/03/03 05:10:43;;;;;;;36.90;28.42;;;3.10;99.90;;;;;;6057299;23;20194;-69
2023/03/03 05:13:10;;;;;;;40.40;27.65;;;3.10;99.90;;;;;;6055372;23;20252;-69
2023/03/03 05:15:37;;;;;;;41.38;29.42;;;3.20;99.90;;;;;;6059596;23;20192;-69
2023/03/03 05:18:06;;;;;;;36.00;27.17;;;3.20;99.90;;;;;;6057497;23;20706;-69
2023/03/03 05:20:33;;;;;;;36.67;28.40;;;3.20;99.90;;;;;;6054040;23;20203;-71
2023/03/03 05:23:00;;;;;;;35.28;26.83;;;3.20;99.90;;;;;;6053233;23;20747;-70
2023/03/03 05:25:27;;;;;;;36.13;26.95;;;3.20;99.90;;;;;;6056868;23;20226;-70
2023/03/03 05:27:54;;;;;;;34.45;26.08;;;3.20;99.90;;;;;;6049672;23;20213;-70
2023/03/03 05:30:21;;;;;;;33.33;26.10;;;3.20;99.90;;;;;;6057598;23;20196;-71
2023/03/03 05:32:48;;;;;;;33.20;24.98;;;3.20;99.90;;;;;;6058422;23;20195;-71
2023/03/03 05:35:18;;;;;;;33.92;25.92;;;3.20;99.90;;;;;;6052370;23;20267;-70
2023/03/03 05:37:46;;;;;;;33.60;24.20;;;3.20;99.90;;;;;;6057005;23;20623;-71
2023/03/03 05:40:14;;;;;;;33.20;24.45;;;3.30;99.90;;;;;;6059017;23;20189;-70
2023/03/03 05:42:41;;;;;;;32.30;23.02;;;3.30;99.90;;;;;;6056743;23;20726;-70
2023/03/03 05:45:09;;;;;;;32.40;24.30;;;3.30;99.90;;;;;;6055251;23;20271;-67
2023/03/03 05:47:36;;;;;;;30.52;24.85;;;3.30;99.90;;;;;;6049615;23;20219;-71
2023/03/03 05:50:04;;;;;;;31.85;25.40;;;3.30;99.90;;;;;;6056728;23;20242;-70
2023/03/03 05:52:33;;;;;;;30.70;24.60;;;3.30;99.90;;;;;;6055937;23;20220;-70
2023/03/03 05:54:59;;;;;;;34.03;24.85;;;3.30;99.90;;;;;;6060048;23;20195;-71
2023/03/03 05:57:27;;;;;;;31.13;24.15;;;3.30;99.90;;;;;;6052896;23;20668;-71
2023/03/03 05:59:54;;;;;;;32.70;24.95;;;3.40;99.90;;;;;;6059133;23;20196;-70
2023/03/03 06:02:21;;;;;;;33.42;26.20;;;3.40;99.90;;;;;;6058663;23;20193;-71
2023/03/03 06:04:48;;;;;;;30.02;24.77;;;3.50;99.90;;;;;;6052668;23;20217;-72
2023/03/03 06:07:15;;;;;;;28.73;23.35;;;3.40;99.90;;;;;;6048881;23;20757;-71
2023/03/03 06:09:43;;;;;;;28.90;22.35;;;3.40;99.90;;;;;;6043252;23;20181;-70
2023/03/03 06:12:11;;;;;;;29.98;23.45;;;3.50;99.90;;;;;;6049258;23;20819;-71
2023/03/03 06:14:38;;;;;;;28.52;23.08;;;3.50;99.90;;;;;;6056803;23;20653;-71
2023/03/03 06:17:05;;;;;;;32.63;23.20;;;3.50;99.90;;;;;;6055128;23;20728;-71
2023/03/03 06:19:32;;;;;;;30.45;23.33;;;3.50;99.90;;;;;;6053581;23;20224;-71
2023/03/03 06:21:59;;;;;;;30.23;22.40;;;3.40;99.90;;;;;;6054951;23;20200;-70
2023/03/03 06:24:29;;;;;;;29.25;23.13;;;3.40;99.90;;;;;;6055067;23;20916;-70
2023/03/03 06:26:57;;;;;;;31.83;24.67;;;3.40;99.90;;;;;;6054173;23;20212;-71
2023/03/03 06:29:24;;;;;;;29.52;22.88;;;3.40;99.90;;;;;;6039063;23;20193;-71
2023/03/03 06:31:51;;;;;;;29.95;23.00;;;3.40;99.90;;;;;;6044316;23;20181;-71
2023/03/03 06:34:18;;;;;;;28.27;22.60;;;3.40;99.90;;;;;;6046300;23;20274;-70
2023/03/03 06:36:46;;;;;;;31.33;23.77;;;3.40;99.90;;;;;;6042791;23;20760;-71
2023/03/03 06:39:13;;;;;;;30.65;23.45;;;3.40;99.90;;;;;;6047891;23;20206;-71
2023/03/03 06:41:40;;;;;;;29.85;23.10;;;3.40;99.90;;;;;;6047585;23;20189;-71
2023/03/03 06:44:10;;;;;;;26.90;22.20;;;3.40;99.90;;;;;;6050626;23;20213;-70
2023/03/03 06:46:37;;;;;;;32.55;24.48;;;3.50;99.90;;;;;;6048250;23;20585;-72
2023/03/03 06:49:05;;;;;;;28.23;21.17;;;3.50;99.90;;;;;;6056616;23;20272;-71
2023/03/03 06:51:34;;;;;;;29.60;22.70;;;3.40;99.90;;;;;;6049040;23;20191;-72
2023/03/03 06:54:06;;;;;;;26.92;21.80;;;3.40;99.90;;;;;;6054140;23;20243;-72
2023/03/03 06:56:36;;;;;;;29.17;22.40;;;3.40;99.90;;;;;;6056334;23;20200;-72
2023/03/03 06:59:11;;;;;;;27.73;21.88;;;3.40;99.90;;;;;;6048485;23;20255;-72
2023/03/03 07:01:40;;;;;;;29.98;24.45;;;3.40;99.90;;;;;;6048824;23;20196;-71
2023/03/03 07:04:24;;;;;;;31.98;22.45;;;3.40;99.90;;;;;;6055802;23;20189;-71
2023/03/03 07:06:51;;;;;;;33.80;23.33;;;3.50;99.90;;;;;;6056718;23;20303;-71
2023/03/03 07:09:22;;;;;;;30.38;21.55;;;3.50;99.90;;;;;;6039473;23;20185;-71
2023/03/03 07:11:50;;;;;;;29.40;22.42;;;3.50;99.90;;;;;;6057357;23;20187;-71
2023/03/03 07:14:20;;;;;;;31.67;22.85;;;3.50;99.90;;;;;;6052227;23;20733;-71
2023/03/03 07:16:53;;;;;;;26.50;21.08;;;3.60;99.90;;;;;;6051462;23;20291;-71
2023/03/03 07:19:29;;;;;;;27.10;20.95;;;3.60;99.90;;;;;;6052237;23;20209;-71
2023/03/03 07:21:57;;;;;;;33.72;22.20;;;3.70;99.90;;;;;;6050405;23;20534;-72
2023/03/03 07:24:30;;;;;;;30.38;22.15;;;3.70;99.90;;;;;;6053176;23;20193;-70
2023/03/03 07:27:00;;;;;;;27.02;22.67;;;3.70;99.90;;;;;;6059912;23;20209;-70
2023/03/03 07:29:30;;;;;;;25.73;20.35;;;3.80;99.90;;;;;;6052912;23;20197;-72
2023/03/03 07:31:59;;;;;;;22.80;19.25;;;3.90;99.90;;;;;;6054861;23;20580;-73
2023/03/03 07:34:30;;;;;;;25.02;20.35;;;4.00;99.90;;;;;;6051253;23;20188;-72
2023/03/03 07:36:59;;;;;;;28.20;21.10;;;4.00;99.90;;;;;;6051614;23;20255;-71
2023/03/03 07:39:33;;;;;;;27.60;21.80;;;4.20;99.90;;;;;;6051977;23;20648;-71
2023/03/03 07:42:12;;;;;;;29.75;20.88;;;4.30;99.90;;;;;;6057911;23;20185;-72
2023/03/03 07:44:39;;;;;;;21.98;18.63;;;4.40;99.90;;;;;;6059431;23;20267;-72
2023/03/03 07:47:19;;;;;;;24.40;21.05;;;4.50;99.90;;;;;;6043560;23;20711;-71
2023/03/03 07:49:48;;;;;;;24.55;20.02;;;4.60;99.90;;;;;;6054635;23;20188;-71
2023/03/03 07:52:25;;;;;;;24.48;18.67;;;4.70;99.90;;;;;;6052111;23;20184;-72
2023/03/03 07:54:52;;;;;;;27.90;21.08;;;4.90;99.90;;;;;;6050295;23;20212;-72
2023/03/03 07:57:24;;;;;;;23.17;19.23;;;5.00;99.90;;;;;;6051925;23;20220;-72
2023/03/03 07:59:53;;;;;;;21.95;18.58;;;5.00;99.90;;;;;;6056167;23;20209;-71
2023/03/03 08:02:40;;;;;;;20.20;17.45;;;5.10;99.90;;;;;;6056176;23;20189;-71
2023/03/03 08:05:28;;;;;;;22.10;18.45;;;5.20;99.90;;;;;;6056111;23;20200;-71
2023/03/03 08:08:10;;;;;;;23.30;19.10;;;5.20;99.90;;;;;;6051874;23;20614;-71
2023/03/03 08:10:42;;;;;;;21.60;18.55;;;5.30;99.90;;;;;;6056209;23;20702;-72
2023/03/03 08:13:18;;;;;;;22.50;19.02;;;5.50;99.90;;;;;;6055220;23;20185;-71
2023/03/03 08:15:48;;;;;;;22.00;19.00;;;5.60;99.90;;;;;;6046080;23;20328;-71
2023/03/03 08:18:28;;;;;;;26.00;20.23;;;5.80;99.90;;;;;;6042801;23;20267;-72
2023/03/03 08:20:57;;;;;;;22.38;19.20;;;6.00;99.90;;;;;;6060671;23;20187;-72
2023/03/03 08:23:24;;;;;;;25.50;19.63;;;6.10;99.90;;;;;;6055077;23;20195;-70
2023/03/03 08:25:52;;;;;;;24.27;20.02;;;6.30;99.90;;;;;;6047640;23;20198;-69
2023/03/03 08:28:20;;;;;;;26.20;20.45;;;6.50;99.90;;;;;;6055073;23;20278;-87
2023/03/03 08:30:48;;;;;;;21.50;19.02;;;6.70;99.90;;;;;;6051810;23;20241;-73
2023/03/03 08:33:16;;;;;;;21.15;18.58;;;7.10;99.90;;;;;;6056922;23;20271;-71
2023/03/03 08:35:46;;;;;;;22.35;19.80;;;7.50;99.90;;;;;;6057596;23;20193;-72
2023/03/03 08:38:15;;;;;;;23.73;21.30;;;7.90;99.90;;;;;;6055634;23;20181;-73
2023/03/03 08:40:42;;;;;;;25.30;20.77;;;8.40;99.90;;;;;;6048613;23;20214;-72
2023/03/03 08:43:09;;;;;;;25.48;21.80;;;8.70;99.90;;;;;;6043674;23;20185;-72
2023/03/03 08:45:37;;;;;;;21.92;19.23;;;9.10;99.90;;;;;;6054355;23;20213;-72
2023/03/03 08:48:04;;;;;;;21.52;19.00;;;9.40;99.90;;;;;;6052575;23;20205;-72
2023/03/03 08:50:31;;;;;;;20.65;18.52;;;9.70;99.90;;;;;;6058192;23;20300;-72
2023/03/03 08:53:00;;;;;;;21.30;18.55;;;9.90;99.90;;;;;;6053027;23;20193;-71
2023/03/03 08:55:27;;;;;;;23.83;20.60;;;10.10;99.90;;;;;;6061059;23;20200;-71
2023/03/03 08:57:54;;;;;;;23.27;20.88;;;10.20;99.90;;;;;;6055177;23;20467;-71
2023/03/03 09:00:21;;;;;;;23.20;20.70;;;10.30;99.90;;;;;;6056080;23;20216;-71
2023/03/03 09:02:49;;;;;;;28.93;25.03;;;10.50;99.90;;;;;;6051807;23;20806;-72
2023/03/03 09:05:17;;;;;;;24.40;21.73;;;10.70;99.90;;;;;;6057966;23;20435;-71
2023/03/03 09:07:46;;;;;;;25.60;22.90;;;10.80;99.90;;;;;;6050188;23;20497;-71
2023/03/03 09:10:16;;;;;;;24.80;22.30;;;10.70;99.90;;;;;;6051285;23;20432;-71
2023/03/03 09:12:47;;;;;;;23.17;20.87;;;10.70;99.90;;;;;;6056492;23;20493;-71
2023/03/03 09:15:20;;;;;;;24.15;21.60;;;10.70;99.90;;;;;;6045788;23;20530;-71
2023/03/03 09:17:48;;;;;;;25.33;21.43;;;10.80;99.90;;;;;;6053159;23;20271;-71
2023/03/03 09:20:32;;;;;;;23.80;21.50;;;11.00;99.80;;;;;;6057120;23;20614;-71
2023/03/03 09:23:16;;;;;;;25.00;22.30;;;11.30;99.10;;;;;;6055774;23;20519;-72
2023/03/03 09:25:45;;;;;;;23.67;21.20;;;11.10;98.70;;;;;;6044728;23;20456;-71
2023/03/03 09:28:23;;;;;;;23.67;21.13;;;11.10;98.50;;;;;;6055992;23;20494;-71
2023/03/03 09:30:53;;;;;;;25.87;22.73;;;11.00;98.40;;;;;;6055744;23;20502;-71
2023/03/03 09:33:26;;;;;;;29.73;26.50;;;10.90;98.20;;;;;;6056459;23;20462;-70
2023/03/03 09:35:56;;;;;;;26.55;23.75;;;10.70;98.30;;;;;;6054080;23;20673;-71
2023/03/03 09:38:29;;;;;;;29.50;26.50;;;10.70;98.30;;;;;;6055886;23;20297;-71
2023/03/03 09:41:47;;;;;;;23.08;20.67;;;10.60;98.10;;;;;;6052596;23;20441;-71
2023/03/03 09:44:31;;;;;;;24.38;21.77;;;10.50;97.40;;;;;;6053203;23;20195;-72
2023/03/03 09:47:17;;;;;;;23.58;20.60;;;10.20;97.90;;;;;;6056962;23;20231;-73
2023/03/03 09:49:56;;;;;;;24.80;22.17;;;9.70;98.70;;;;;;6052773;23;20186;-72
2023/03/03 09:52:37;;;;;;;24.40;22.00;;;9.40;99.40;;;;;;6055038;23;20652;-71
2023/03/03 09:55:18;;;;;;;26.70;22.08;;;9.30;99.60;;;;;;6058492;23;20238;-71
2023/03/03 09:58:02;;;;;;;23.40;20.90;;;9.30;99.80;;;;;;6058420;23;20224;-72
2023/03/03 10:00:42;;;;;;;26.25;21.17;;;9.50;99.90;;;;;;6057381;23;20243;-72
2023/03/03 10:03:45;;;;;;;23.95;21.42;;;9.70;99.90;;;;;;6047035;23;20181;-71
2023/03/03 10:06:21;;;;;;;26.65;23.10;;;10.20;98.60;;;;;;6044078;23;20279;-72
2023/03/03 10:09:04;;;;;;;23.27;20.77;;;10.20;98.20;;;;;;6057984;23;20271;-72
2023/03/03 10:11:40;;;;;;;23.83;21.35;;;10.40;97.90;;;;;;6057088;23;20177;-71
2023/03/03 10:14:41;;;;;;;27.52;24.27;;;10.60;97.80;;;;;;6049370;23;20185;-72
2023/03/03 10:17:39;;;;;;;24.20;21.70;;;10.70;97.60;;;;;;6057223;23;20228;-71
2023/03/03 10:20:20;;;;;;;24.15;21.65;;;10.80;97.30;;;;;;6059098;23;20563;-71
2023/03/03 10:22:52;;;;;;;25.10;22.40;;;10.80;97.60;;;;;;6058596;23;20185;-72
2023/03/03 10:25:33;;;;;;;23.98;21.38;;;10.90;97.00;;;;;;6050453;23;20292;-71
2023/03/03 10:28:19;;;;;;;23.73;21.33;;;11.10;96.30;;;;;;6052041;23;20194;-71
2023/03/03 10:30:58;;;;;;;24.57;21.67;;;10.90;96.50;;;;;;6047979;23;20244;-71
2023/03/03 10:33:35;;;;;;;25.20;22.50;;;11.00;96.60;;;;;;6054331;23;20527;-72
2023/03/03 10:36:16;;;;;;;24.47;21.87;;;11.20;96.40;;;;;;6049370;23;20460;-71
2023/03/03 10:38:54;;;;;;;23.40;21.00;;;11.40;96.30;;;;;;6059429;23;20433;-71
2023/03/03 10:41:46;;;;;;;23.70;21.10;;;11.80;96.40;;;;;;6059133;23;20483;-71
2023/03/03 10:44:29;;;;;;;22.47;20.13;;;12.30;95.20;;;;;;6047557;23;20442;-71
2023/03/03 10:47:14;;;;;;;23.43;20.83;;;12.70;94.50;;;;;;6052829;23;20463;-72
2023/03/03 10:49:56;;;;;;;24.83;22.43;;;13.10;94.20;;;;;;6048442;23;20510;-72
2023/03/03 10:52:33;;;;;;;22.83;20.63;;;13.70;93.10;;;;;;6053288;23;20442;-72
2023/03/03 10:55:17;;;;;;;23.10;20.83;;;14.10;92.50;;;;;;6056400;23;21104;-72
2023/03/03 10:57:55;;;;;;;24.30;22.00;;;14.30;91.60;;;;;;6056797;23;20866;-73
2023/03/03 11:00:25;;;;;;;22.47;20.37;;;14.30;91.10;;;;;;6050450;23;20923;-72
2023/03/03 11:03:29;;;;;;;23.70;21.30;;;14.30;91.00;;;;;;6057082;23;21009;-72
2023/03/03 11:05:59;;;;;;;22.57;20.27;;;14.30;90.40;;;;;;5969972;23;20450;-72
2023/03/03 11:08:33;;;;;;;22.00;19.90;;;14.20;90.40;;;;;;6057091;23;21126;-72
2023/03/03 11:11:09;;;;;;;24.50;20.83;;;14.20;90.30;;;;;;6052408;23;20447;-72
2023/03/03 11:13:46;;;;;;;23.67;21.27;;;14.30;89.80;;;;;;6049758;23;20488;-72
2023/03/03 11:16:33;;;;;;;23.00;20.70;;;14.20;90.00;;;;;;6054707;23;20459;-71
2023/03/03 11:19:16;;;;;;;23.90;21.37;;;14.00;89.10;;;;;;6055451;23;20500;-71
2023/03/03 11:21:49;;;;;;;22.87;20.67;;;13.70;89.10;;;;;;6056898;23;20527;-71
2023/03/03 11:24:31;;;;;;;23.00;20.80;;;13.60;89.70;;;;;;6047239;23;20926;-72
2023/03/03 11:27:17;;;;;;;22.50;20.20;;;13.40;89.60;;;;;;6045872;23;20541;-72
2023/03/03 11:29:59;;;;;;;22.40;20.30;;;13.10;89.50;;;;;;6054410;23;20566;-72
2023/03/03 11:32:37;;;;;;;21.67;19.47;;;12.80;89.80;;;;;;6050744;23;20434;-71
2023/03/03 11:35:23;;;;;;;21.97;18.90;;;12.50;90.20;;;;;;6055758;23;20436;-72
2023/03/03 11:38:03;;;;;;;22.30;20.10;;;12.40;90.70;;;;;;6055784;23;20431;-72
2023/03/03 11:40:37;;;;;;;20.60;18.57;;;12.40;90.90;;;;;;6050952;23;20871;-71
2023/03/03 11:43:14;;;;;;;21.17;19.10;;;12.50;90.90;;;;;;6050778;23;20517;-72
2023/03/03 11:45:45;;;;;;;20.33;18.30;;;12.60;90.90;;;;;;6053555;23;21000;-72
2023/03/03 11:48:18;;;;;;;21.50;19.20;;;12.70;90.80;;;;;;6050286;23;20525;-71
2023/03/03 11:50:55;;;;;;;21.40;19.27;;;12.80;90.60;;;;;;6055768;23;20543;-70
2023/03/03 11:53:43;;;;;;;20.70;18.67;;;13.00;90.40;;;;;;6046339;23;20439;-71
2023/03/03 11:56:21;;;;;;;21.33;19.00;;;13.10;90.20;;;;;;6052892;23;21029;-71
2023/03/03 11:58:57;;;;;;;22.10;19.87;;;13.20;90.00;;;;;;6045280;23;20439;-72
2023/03/03 12:01:31;;;;;;;22.23;19.07;;;13.30;89.80;;;;;;6054271;23;21007;-72
2023/03/03 12:04:02;;;;;;;21.70;19.57;;;13.40;89.30;;;;;;6055340;23;20435;-71
2023/03/03 12:06:40;;;;;;;21.30;19.30;;;13.70;88.80;;;;;;6055478;23;20556;-72
2023/03/03 12:09:22;;;;;;;21.90;19.67;;;13.80;88.80;;;;;;6047183;23;20431;-72
2023/03/03 12:11:53;;;;;;;21.50;19.30;;;14.10;88.00;;;;;;6058238;23;20474;-72
2023/03/03 12:14:40;;;;;;;22.47;20.30;;;14.20;87.40;;;;;;6053471;23;20958;-73
2023/03/03 12:17:17;;;;;;;21.70;19.50;;;14.30;86.50;;;;;;6052915;23;21046;-71
2023/03/03 12:19:55;;;;;;;22.50;20.10;;;14.30;86.20;;;;;;6057767;23;20461;-73
2023/03/03 12:22:32;;;;;;;22.40;20.10;;;14.40;84.90;;;;;;6046732;23;20482;-71
2023/03/03 12:25:14;;;;;;;21.30;19.07;;;14.30;85.00;;;;;;6050764;23;20446;-71
2023/03/03 12:27:48;;;;;;;24.93;20.27;;;14.30;84.40;;;;;;6059436;23;20470;-72
2023/03/03 12:30:27;;;;;;;22.63;20.47;;;14.40;84.70;;;;;;6054684;23;20915;-71
2023/03/03 12:33:16;;;;;;;22.80;20.50;;;14.70;84.00;;;;;;6051565;23;20446;-71
2023/03/03 12:35:51;;;;;;;22.53;20.33;;;14.70;83.70;;;;;;6057564;23;21014;-72
2023/03/03 12:38:29;;;;;;;21.70;19.50;;;14.40;83.40;;;;;;6053420;23;20512;-71
2023/03/03 12:41:04;;;;;;;22.37;19.80;;;14.20;83.70;;;;;;6049456;23;20467;-72
2023/03/03 12:43:43;;;;;;;22.50;20.30;;;14.10;83.60;;;;;;6055120;23;20513;-72
2023/03/03 12:46:19;;;;;;;22.50;20.30;;;14.10;83.70;;;;;;6045824;23;20533;-72
2023/03/03 12:48:47;;;;;;;22.60;20.30;;;13.90;84.10;;;;;;6052354;23;21022;-72
2023/03/03 12:51:36;;;;;;;23.33;20.80;;;13.80;84.10;;;;;;6058358;23;20465;-70
2023/03/03 12:54:39;;;;;;;22.60;20.30;;;13.60;84.70;;;;;;6046739;23;20430;-72
2023/03/03 12:57:19;;;;;;;25.40;22.10;;;13.60;84.90;;;;;;6044114;23;20593;-72